Disclaimer

Please do not use the information listed here in-flight or in-navigation, as they are not provided to us by the airports but are provided by volunteers, so they might be outdated.

Search


Regions


Airport information page

No radio frequency information is available.

Airport informations:
Latitude: 55° 07' 35.40" N
Longitude: 030° 20' 58.70" E
Elevation: 683 feet - 208 meters
Operating hours: Remarks
Operating agency: Civil government, landing fees and diplomatic clearance may be required
Timezone: UTC+2(+3DT) - Last Sunday in March to last Sunday in October
Fuel: N/A

Runway information:
06/24 - 8550 x 138 feet< - >2606 x 42 meters

Recent METARs:
UMII 151115Z 06002MPS 4900 BR BKN008 BKN100 M01/M01 Q1032 R05/920330 TEMPO 2000 BKN005
UMII 151200Z 06002MPS 4900 BR BKN008 BKN100 M00/M01 Q1033 R05/920330 TEMPO 2000 BKN005
UMII 151200Z 06002MPS 4900 BR BKN008 BKN100 M00/M01 Q1033 R05/920330 TEMPO 2000 BKN005

Airport on the map: